Time;durP1;ratioP1;P1;durP2;ratioP2;P2;SDS_P1;SDS_P2;PMS_P1;PMS_P2;Temp;Humidity;BMP_temperature;BMP_pressure;BME280_temperature;BME280_humidity;BME280_pressure;Samples;Min_cycle;Max_cycle;Signal;HPM_P1;HPM_P2
2023/08/04 00:01:36;;;;;;;;;;;18.60;99.90;;;;;;5031108;28;20018;-68
2023/08/04 00:04:04;;;;;;;;;;;18.60;99.90;;;;;;5031162;28;20059;-68
2023/08/04 00:06:32;;;;;;;;;;;18.80;99.90;;;;;;5031339;28;20026;-68
2023/08/04 00:09:00;;;;;;;;;;;18.80;99.90;;;;;;5028361;28;19997;-67
2023/08/04 00:11:28;;;;;;;;;;;18.70;99.90;;;;;;5030880;28;19960;-68
2023/08/04 00:13:57;;;;;;;;;;;18.70;99.90;;;;;;5031191;28;20426;-68
2023/08/04 00:16:25;;;;;;;;;;;18.60;99.90;;;;;;5014931;28;19968;-68
2023/08/04 00:18:53;;;;;;;;;;;18.60;99.90;;;;;;5013297;28;19965;-68
2023/08/04 00:21:20;;;;;;;;;;;18.60;99.90;;;;;;5013514;28;20482;-68
2023/08/04 00:23:48;;;;;;;;;;;18.60;99.90;;;;;;5025898;28;19976;-68
2023/08/04 00:26:16;;;;;;;;;;;18.60;99.90;;;;;;5025962;28;20264;-68
2023/08/04 00:28:44;;;;;;;;;;;18.60;99.90;;;;;;5030257;28;19971;-68
2023/08/04 00:31:14;;;;;;;;;;;18.60;99.90;;;;;;5027565;28;20455;-68
2023/08/04 00:33:42;;;;;;;;;;;18.70;99.90;;;;;;5030003;28;19968;-68
2023/08/04 00:36:10;;;;;;;;;;;18.70;99.90;;;;;;5030254;28;20014;-68
2023/08/04 00:38:37;;;;;;;;;;;18.80;99.90;;;;;;5029907;28;19968;-68
2023/08/04 00:41:05;;;;;;;;;;;18.90;99.90;;;;;;5031677;28;19972;-68
2023/08/04 00:43:33;;;;;;;;;;;19.00;99.90;;;;;;5030648;28;19968;-68
2023/08/04 00:46:01;;;;;;;;;;;19.00;99.90;;;;;;5029565;28;20029;-68
2023/08/04 00:48:30;;;;;;;;;;;18.90;99.90;;;;;;5023265;28;19992;-68
2023/08/04 00:50:58;;;;;;;;;;;19.00;99.90;;;;;;5029252;28;19971;-67
2023/08/04 00:53:26;;;;;;;;;;;19.00;99.90;;;;;;5024796;28;19965;-68
2023/08/04 00:55:53;;;;;;;;;;;19.00;99.90;;;;;;5028348;28;19976;-67
2023/08/04 00:58:21;;;;;;;;;;;19.00;99.90;;;;;;5014186;28;20355;-67
2023/08/04 01:00:49;;;;;;;;;;;18.90;99.90;;;;;;5016560;28;19968;-68
2023/08/04 01:03:17;;;;;;;;;;;18.90;99.90;;;;;;5013790;28;19964;-67
2023/08/04 01:05:48;;;;;;;;;;;18.90;99.90;;;;;;5012362;28;20010;-67
2023/08/04 01:08:19;;;;;;;;;;;18.80;99.90;;;;;;5011838;28;20011;-67
2023/08/04 01:10:49;;;;;;;;;;;18.70;99.90;;;;;;5012792;28;19968;-67
2023/08/04 01:13:21;;;;;;;;;;;18.70;99.90;;;;;;5017352;28;19961;-68
2023/08/04 01:15:50;;;;;;;;;;;18.70;99.90;;;;;;5012296;28;19965;-68
2023/08/04 01:18:19;;;;;;;;;;;18.70;99.90;;;;;;5011660;28;19965;-68
2023/08/04 01:20:48;;;;;;;;;;;18.80;99.90;;;;;;5011873;28;19965;-68
2023/08/04 01:23:18;;;;;;;;;;;18.90;99.90;;;;;;5012472;28;19968;-68
2023/08/04 01:25:46;;;;;;;;;;;18.80;99.90;;;;;;5025886;28;19960;-68
2023/08/04 01:28:15;;;;;;;;;;;18.80;99.90;;;;;;5021853;28;19972;-67
2023/08/04 01:30:44;;;;;;;;;;;18.80;99.90;;;;;;5011803;28;19971;-68
2023/08/04 01:33:26;;;;;;;;;;;18.80;99.90;;;;;;5019662;28;19964;-67
2023/08/04 01:35:54;;;;;;;;;;;18.70;99.90;;;;;;5011728;28;19969;-68
2023/08/04 01:38:23;;;;;;;;;;;18.70;99.90;;;;;;5011489;28;19965;-68
2023/08/04 01:40:50;;;;;;;;;;;18.60;99.90;;;;;;5011821;28;19969;-68
2023/08/04 01:43:19;;;;;;;;;;;18.50;99.90;;;;;;5019488;28;19972;-68
2023/08/04 01:45:47;;;;;;;;;;;18.40;99.90;;;;;;5011529;28;20460;-68
2023/08/04 01:48:15;;;;;;;;;;;18.50;99.90;;;;;;5011169;28;20055;-68
2023/08/04 01:50:43;;;;;;;;;;;18.50;99.90;;;;;;5012822;28;19969;-67
2023/08/04 01:53:24;;;;;;;;;;;18.40;99.90;;;;;;5011579;28;20015;-68
2023/08/04 01:55:51;;;;;;;;;;;18.40;99.90;;;;;;5020601;28;20067;-68
2023/08/04 01:58:20;;;;;;;;;;;18.50;99.90;;;;;;5019299;28;19968;-69
2023/08/04 02:00:48;;;;;;;;;;;18.50;99.90;;;;;;5028879;28;19964;-67
2023/08/04 02:03:15;;;;;;;;;;;18.40;99.90;;;;;;5021491;28;19965;-67
2023/08/04 02:05:45;;;;;;;;;;;18.40;99.90;;;;;;5016192;28;20051;-67
2023/08/04 02:08:13;;;;;;;;;;;18.40;99.90;;;;;;5018138;28;19977;-67
2023/08/04 02:10:48;;;;;;;;;;;18.30;99.90;;;;;;5015175;28;19965;-68
2023/08/04 02:13:15;;;;;;;;;;;18.40;99.90;;;;;;5015406;28;20343;-67
2023/08/04 02:15:43;;;;;;;;;;;18.50;99.90;;;;;;5024164;28;19964;-67
2023/08/04 02:18:11;;;;;;;;;;;18.50;99.90;;;;;;5030658;28;20439;-66
2023/08/04 02:20:39;;;;;;;;;;;18.50;99.90;;;;;;5034720;28;19965;-67
2023/08/04 02:23:07;;;;;;;;;;;18.60;99.90;;;;;;5032556;28;19966;-66
2023/08/04 02:25:36;;;;;;;;;;;18.60;99.90;;;;;;5026479;28;19965;-67
2023/08/04 02:28:05;;;;;;;;;;;18.60;99.90;;;;;;5026528;28;19976;-67
2023/08/04 02:30:33;;;;;;;;;;;18.60;99.90;;;;;;5033060;28;19967;-67
2023/08/04 02:33:00;;;;;;;;;;;18.50;99.90;;;;;;5032723;28;20022;-67
2023/08/04 02:35:28;;;;;;;;;;;18.50;99.90;;;;;;5033558;28;20063;-67
2023/08/04 02:37:56;;;;;;;;;;;18.60;99.90;;;;;;5032066;28;20101;-67
2023/08/04 02:40:24;;;;;;;;;;;18.60;99.90;;;;;;5032199;28;19984;-70
2023/08/04 02:42:52;;;;;;;;;;;18.60;99.90;;;;;;5033810;28;19970;-72
2023/08/04 02:45:21;;;;;;;;;;;18.50;99.90;;;;;;5027507;28;19974;-69
2023/08/04 02:47:49;;;;;;;;;;;18.50;99.90;;;;;;5030795;28;19972;-68
2023/08/04 02:50:17;;;;;;;;;;;18.50;99.90;;;;;;5031779;28;20007;-67
2023/08/04 02:52:44;;;;;;;;;;;18.40;99.90;;;;;;5033105;28;19967;-67
2023/08/04 02:55:12;;;;;;;;;;;18.40;99.90;;;;;;5029249;28;19961;-68
2023/08/04 02:57:40;;;;;;;;;;;18.40;99.90;;;;;;5024658;28;19960;-68
2023/08/04 03:00:08;;;;;;;;;;;18.40;99.90;;;;;;5031938;28;19960;-67
2023/08/04 03:02:37;;;;;;;;;;;18.40;99.90;;;;;;5032148;28;19964;-68
2023/08/04 03:05:05;;;;;;;;;;;18.40;99.90;;;;;;5032958;28;19960;-68
2023/08/04 03:07:34;;;;;;;;;;;18.40;99.90;;;;;;5031671;28;19964;-68
2023/08/04 03:10:02;;;;;;;;;;;18.40;99.90;;;;;;5031365;28;19995;-68
2023/08/04 03:12:29;;;;;;;;;;;18.40;99.90;;;;;;5030125;28;19968;-67
2023/08/04 03:14:57;;;;;;;;;;;18.40;99.90;;;;;;5030115;28;19964;-68
2023/08/04 03:17:28;;;;;;;;;;;18.30;99.90;;;;;;5029773;28;19960;-67
2023/08/04 03:19:57;;;;;;;;;;;18.20;99.90;;;;;;5030567;28;20006;-67
2023/08/04 03:22:25;;;;;;;;;;;18.20;99.90;;;;;;5031430;28;19968;-68
2023/08/04 03:24:58;;;;;;;;;;;18.10;99.90;;;;;;5024368;28;19963;-68
2023/08/04 03:27:27;;;;;;;;;;;18.00;99.90;;;;;;5029214;28;19960;-68
2023/08/04 03:29:54;;;;;;;;;;;18.00;99.90;;;;;;5029527;28;20350;-68
2023/08/04 03:32:23;;;;;;;;;;;18.00;99.90;;;;;;5031824;28;20059;-68
2023/08/04 03:34:50;;;;;;;;;;;18.10;99.90;;;;;;5031117;28;19975;-69
2023/08/04 03:37:20;;;;;;;;;;;18.10;99.90;;;;;;5031675;28;20007;-68
2023/08/04 03:39:48;;;;;;;;;;;18.10;99.90;;;;;;5030617;28;19964;-68
2023/08/04 03:42:16;;;;;;;;;;;18.10;99.90;;;;;;5030759;28;19963;-68
2023/08/04 03:44:43;;;;;;;;;;;18.10;99.90;;;;;;5031854;28;20030;-68
2023/08/04 03:47:11;;;;;;;;;;;18.20;99.90;;;;;;5027139;28;19959;-67
2023/08/04 03:49:39;;;;;;;;;;;18.30;99.90;;;;;;5031962;28;19968;-69
2023/08/04 03:52:07;;;;;;;;;;;18.30;99.90;;;;;;5032238;28;20378;-69
2023/08/04 03:54:36;;;;;;;;;;;18.30;99.90;;;;;;5029327;28;20512;-68
2023/08/04 03:57:04;;;;;;;;;;;18.20;99.90;;;;;;5026035;28;20375;-66
2023/08/04 03:59:32;;;;;;;;;;;18.30;99.90;;;;;;5031104;28;20019;-69
2023/08/04 04:02:00;;;;;;;;;;;18.20;99.90;;;;;;5013550;28;19971;-68
2023/08/04 04:04:28;;;;;;;;;;;18.30;99.90;;;;;;5019769;28;19959;-68
2023/08/04 04:06:55;;;;;;;;;;;18.20;99.90;;;;;;5014956;28;19986;-68
2023/08/04 04:09:23;;;;;;;;;;;18.10;99.90;;;;;;5030049;28;19964;-69
2023/08/04 04:11:52;;;;;;;;;;;18.20;99.90;;;;;;5028030;28;20018;-69
2023/08/04 04:14:20;;;;;;;;;;;18.20;99.90;;;;;;5017221;28;20556;-67
2023/08/04 04:16:48;;;;;;;;;;;18.00;99.90;;;;;;5021881;28;19970;-67
2023/08/04 04:19:16;;;;;;;;;;;18.00;99.90;;;;;;5021371;28;20543;-67
2023/08/04 04:21:44;;;;;;;;;;;18.00;99.90;;;;;;5018325;28;19976;-68
2023/08/04 04:24:12;;;;;;;;;;;18.00;99.90;;;;;;5021514;28;19976;-66
2023/08/04 04:26:40;;;;;;;;;;;18.00;99.90;;;;;;5018834;28;19971;-67
2023/08/04 04:29:09;;;;;;;;;;;17.90;99.90;;;;;;5021044;28;20034;-68
2023/08/04 04:31:37;;;;;;;;;;;17.70;99.90;;;;;;5021228;28;19967;-68
2023/08/04 04:34:05;;;;;;;;;;;17.70;99.90;;;;;;5019409;28;19969;-68
2023/08/04 04:36:33;;;;;;;;;;;17.80;99.90;;;;;;5018348;28;19968;-67
2023/08/04 04:39:01;;;;;;;;;;;17.70;99.90;;;;;;5020637;28;20428;-68
2023/08/04 04:41:29;;;;;;;;;;;17.70;99.90;;;;;;5019328;28;19976;-70
2023/08/04 04:43:57;;;;;;;;;;;17.70;99.90;;;;;;5019059;28;19979;-67
2023/08/04 04:46:26;;;;;;;;;;;17.60;99.90;;;;;;5018734;28;20798;-68
2023/08/04 04:48:54;;;;;;;;;;;17.50;99.90;;;;;;5020660;28;20347;-68
2023/08/04 04:51:22;;;;;;;;;;;17.50;99.90;;;;;;5020879;28;19991;-68
2023/08/04 04:53:50;;;;;;;;;;;17.50;99.90;;;;;;5021290;28;19994;-68
2023/08/04 04:56:17;;;;;;;;;;;17.50;99.90;;;;;;5020584;28;19968;-68
2023/08/04 04:58:45;;;;;;;;;;;17.50;99.90;;;;;;5021498;28;20428;-68
2023/08/04 05:01:13;;;;;;;;;;;17.40;99.90;;;;;;5020418;28;19971;-68
2023/08/04 05:03:42;;;;;;;;;;;17.50;99.90;;;;;;5018510;28;20595;-68
2023/08/04 05:06:10;;;;;;;;;;;17.60;99.90;;;;;;5018594;28;19998;-68
2023/08/04 05:08:38;;;;;;;;;;;17.50;99.90;;;;;;5021265;28;19965;-68
2023/08/04 05:11:06;;;;;;;;;;;17.60;99.90;;;;;;5018122;28;19963;-68
2023/08/04 05:13:33;;;;;;;;;;;17.60;99.90;;;;;;5017733;28;20339;-69
2023/08/04 05:16:01;;;;;;;;;;;17.70;99.90;;;;;;5016176;28;19960;-69
2023/08/04 05:18:29;;;;;;;;;;;17.80;99.90;;;;;;5018587;28;20070;-68
2023/08/04 05:20:58;;;;;;;;;;;17.70;99.90;;;;;;5022313;28;19988;-68
2023/08/04 05:23:26;;;;;;;;;;;17.80;99.90;;;;;;5021924;28;19975;-68
2023/08/04 05:25:54;;;;;;;;;;;17.80;99.90;;;;;;5018620;28;20049;-68
2023/08/04 05:28:23;;;;;;;;;;;17.90;99.90;;;;;;5020080;28;20056;-68
2023/08/04 05:30:54;;;;;;;;;;;17.80;99.90;;;;;;5021020;28;19979;-69
2023/08/04 05:33:22;;;;;;;;;;;17.70;99.90;;;;;;5021248;28;19988;-68
2023/08/04 05:35:50;;;;;;;;;;;17.70;99.90;;;;;;5016854;28;20055;-68
2023/08/04 05:38:19;;;;;;;;;;;17.60;99.90;;;;;;5019871;28;19963;-68
2023/08/04 05:40:47;;;;;;;;;;;17.60;99.90;;;;;;5019773;28;20002;-71
2023/08/04 05:43:15;;;;;;;;;;;17.70;99.90;;;;;;5018124;28;20060;-70
2023/08/04 05:45:44;;;;;;;;;;;17.70;99.90;;;;;;5016041;28;19986;-69
2023/08/04 05:48:12;;;;;;;;;;;17.70;99.90;;;;;;5019987;28;19976;-68
2023/08/04 05:50:39;;;;;;;;;;;17.80;99.90;;;;;;5019206;28;19968;-69
2023/08/04 05:53:07;;;;;;;;;;;17.90;99.90;;;;;;5019525;28;20269;-69
2023/08/04 05:55:36;;;;;;;;;;;17.80;99.90;;;;;;5017139;28;20496;-69
2023/08/04 05:58:05;;;;;;;;;;;17.80;99.90;;;;;;5017788;28;20117;-68
2023/08/04 06:00:35;;;;;;;;;;;17.70;99.90;;;;;;5020061;28;20437;-69
2023/08/04 06:03:04;;;;;;;;;;;17.70;99.90;;;;;;5019202;28;19966;-69
2023/08/04 06:05:32;;;;;;;;;;;17.80;99.90;;;;;;5019585;28;19959;-70
2023/08/04 06:08:00;;;;;;;;;;;17.80;99.90;;;;;;5018769;28;19968;-69
2023/08/04 06:10:28;;;;;;;;;;;17.80;99.90;;;;;;5018851;28;20034;-69
2023/08/04 06:12:57;;;;;;;;;;;17.90;99.90;;;;;;5019403;28;20046;-69
2023/08/04 06:15:25;;;;;;;;;;;17.90;99.90;;;;;;5018941;28;20003;-68
2023/08/04 06:17:53;;;;;;;;;;;17.90;99.90;;;;;;5019648;28;19971;-72
2023/08/04 06:20:21;;;;;;;;;;;18.10;99.90;;;;;;5023029;28;19961;-71
2023/08/04 06:22:49;;;;;;;;;;;18.20;99.90;;;;;;5024484;28;20011;-71
2023/08/04 06:25:16;;;;;;;;;;;18.30;99.90;;;;;;5026421;28;19960;-74
2023/08/04 06:27:44;;;;;;;;;;;18.30;99.90;;;;;;5027042;28;20366;-73
2023/08/04 06:30:13;;;;;;;;;;;18.20;99.90;;;;;;5031011;28;19964;-74
2023/08/04 06:32:41;;;;;;;;;;;18.10;99.90;;;;;;5030098;28;20382;-73
2023/08/04 06:35:09;;;;;;;;;;;18.10;99.90;;;;;;5031226;28;19960;-73
2023/08/04 06:37:37;;;;;;;;;;;18.10;99.90;;;;;;5030686;28;20430;-74
2023/08/04 06:40:05;;;;;;;;;;;18.00;99.90;;;;;;5031103;28;20382;-73
2023/08/04 06:42:33;;;;;;;;;;;18.00;99.90;;;;;;5030856;28;19967;-72
2023/08/04 06:45:01;;;;;;;;;;;17.90;99.90;;;;;;5022657;28;19961;-73
2023/08/04 06:47:30;;;;;;;;;;;17.90;99.90;;;;;;5030847;28;20430;-73
2023/08/04 06:49:58;;;;;;;;;;;17.70;99.90;;;;;;5034081;28;20504;-74
2023/08/04 06:52:27;;;;;;;;;;;17.70;99.90;;;;;;5034708;28;19967;-73
2023/08/04 06:54:55;;;;;;;;;;;17.60;99.90;;;;;;5034330;28;19972;-73
2023/08/04 06:57:22;;;;;;;;;;;17.60;99.90;;;;;;5034261;28;19959;-73
2023/08/04 06:59:50;;;;;;;;;;;17.50;99.90;;;;;;5034376;28;19968;-73
2023/08/04 07:02:18;;;;;;;;;;;17.60;99.90;;;;;;5034494;28;19971;-73
2023/08/04 07:04:47;;;;;;;;;;;17.50;99.90;;;;;;5034239;28;19960;-73
2023/08/04 07:07:15;;;;;;;;;;;17.50;99.90;;;;;;5034210;28;20324;-73
2023/08/04 07:09:43;;;;;;;;;;;17.40;99.90;;;;;;5033921;28;19969;-73
2023/08/04 07:12:11;;;;;;;;;;;17.40;99.90;;;;;;5034424;28;20449;-73
2023/08/04 07:14:39;;;;;;;;;;;17.50;99.90;;;;;;5034131;28;19968;-71
2023/08/04 07:17:07;;;;;;;;;;;17.50;99.90;;;;;;5034098;28;20029;-73
2023/08/04 07:19:34;;;;;;;;;;;17.50;99.90;;;;;;5033961;28;20495;-72
2023/08/04 07:22:04;;;;;;;;;;;17.40;99.90;;;;;;5034123;28;19968;-73
2023/08/04 07:24:32;;;;;;;;;;;17.40;99.90;;;;;;5034357;28;19964;-73
2023/08/04 07:26:59;;;;;;;;;;;17.40;99.90;;;;;;5033619;28;21370;-73
2023/08/04 07:29:33;;;;;;;;;;;17.50;99.90;;;;;;5033795;28;19961;-73
2023/08/04 07:32:00;;;;;;;;;;;17.50;99.90;;;;;;5034021;28;19969;-73
2023/08/04 07:34:28;;;;;;;;;;;17.40;99.90;;;;;;5033773;28;19959;-73
2023/08/04 07:36:56;;;;;;;;;;;17.40;99.90;;;;;;5033504;28;19962;-73
2023/08/04 07:39:25;;;;;;;;;;;17.50;99.90;;;;;;5034013;28;19983;-73
2023/08/04 07:41:53;;;;;;;;;;;17.50;99.90;;;;;;5033767;28;20308;-73
2023/08/04 07:44:21;;;;;;;;;;;17.60;99.90;;;;;;5033772;28;19965;-73
2023/08/04 07:46:48;;;;;;;;;;;17.70;99.90;;;;;;5033347;28;20497;-71
2023/08/04 07:49:16;;;;;;;;;;;17.60;99.90;;;;;;5033195;28;20030;-73
2023/08/04 07:51:45;;;;;;;;;;;17.60;99.90;;;;;;5033460;28;20397;-73
2023/08/04 07:54:13;;;;;;;;;;;17.40;99.90;;;;;;5033569;28;19969;-74
2023/08/04 07:56:42;;;;;;;;;;;17.40;99.90;;;;;;5033446;28;19996;-74
2023/08/04 07:59:10;;;;;;;;;;;17.50;99.90;;;;;;5024419;28;19975;-73
2023/08/04 08:01:38;;;;;;;;;;;17.50;99.90;;;;;;5033381;28;19968;-74
2023/08/04 08:04:05;;;;;;;;;;;17.40;99.90;;;;;;5033171;28;19959;-74
2023/08/04 08:06:36;;;;;;;;;;;17.40;99.90;;;;;;5033385;28;20393;-74
2023/08/04 08:09:03;;;;;;;;;;;17.50;99.90;;;;;;5032738;28;19968;-74
2023/08/04 08:11:32;;;;;;;;;;;17.60;99.90;;;;;;5033260;28;20460;-74
2023/08/04 08:14:01;;;;;;;;;;;17.60;99.90;;;;;;5033231;28;19964;-75
2023/08/04 08:16:28;;;;;;;;;;;17.60;99.90;;;;;;5033079;28;19967;-74
2023/08/04 08:18:56;;;;;;;;;;;17.60;99.90;;;;;;5032769;28;20334;-74
2023/08/04 08:21:24;;;;;;;;;;;17.50;99.90;;;;;;5032967;28;20437;-74
2023/08/04 08:23:52;;;;;;;;;;;17.50;99.90;;;;;;5032704;28;19971;-73
2023/08/04 08:26:19;;;;;;;;;;;17.50;99.90;;;;;;5032865;28;20050;-74
2023/08/04 08:28:47;;;;;;;;;;;17.70;99.90;;;;;;5032301;28;19976;-73
2023/08/04 08:31:16;;;;;;;;;;;17.80;99.90;;;;;;5032633;28;19963;-74
2023/08/04 08:33:44;;;;;;;;;;;17.80;99.90;;;;;;5032871;28;20061;-74
2023/08/04 08:36:12;;;;;;;;;;;18.00;99.90;;;;;;5025024;28;20395;-73
2023/08/04 08:38:39;;;;;;;;;;;18.00;99.90;;;;;;5032427;28;19967;-73
2023/08/04 08:41:11;;;;;;;;;;;18.10;99.90;;;;;;5032500;28;19960;-74
2023/08/04 08:43:38;;;;;;;;;;;18.20;99.90;;;;;;5032515;28;19983;-73
2023/08/04 08:46:06;;;;;;;;;;;18.20;99.90;;;;;;5032378;28;19971;-73
2023/08/04 08:48:37;;;;;;;;;;;18.30;99.90;;;;;;5032106;28;20373;-73
2023/08/04 08:51:07;;;;;;;;;;;18.30;99.90;;;;;;5032112;28;19972;-73
2023/08/04 08:53:37;;;;;;;;;;;18.40;99.90;;;;;;5032239;28;19960;-73
2023/08/04 08:56:05;;;;;;;;;;;18.30;99.90;;;;;;5031943;28;19964;-72
2023/08/04 08:58:33;;;;;;;;;;;18.50;99.90;;;;;;5031793;28;20326;-72
2023/08/04 09:01:01;;;;;;;;;;;18.50;99.90;;;;;;5032143;28;20153;-72
2023/08/04 09:03:29;;;;;;;;;;;18.40;99.90;;;;;;5032343;28;19960;-72
2023/08/04 09:05:58;;;;;;;;;;;18.40;99.90;;;;;;5032038;28;19964;-73
2023/08/04 09:08:26;;;;;;;;;;;18.40;99.90;;;;;;5032289;28;20051;-73
2023/08/04 09:10:54;;;;;;;;;;;18.40;99.90;;;;;;5031592;28;19968;-73
2023/08/04 09:13:21;;;;;;;;;;;18.50;99.90;;;;;;5032047;28;19965;-72
2023/08/04 09:15:50;;;;;;;;;;;18.60;99.90;;;;;;5031876;28;20011;-72
2023/08/04 09:18:24;;;;;;;;;;;18.60;99.90;;;;;;5031642;28;19960;-73
2023/08/04 09:20:59;;;;;;;;;;;18.80;99.90;;;;;;5031680;28;19968;-72
2023/08/04 09:23:28;;;;;;;;;;;18.80;99.90;;;;;;5031698;28;19988;-72
2023/08/04 09:25:56;;;;;;;;;;;18.80;99.90;;;;;;5031756;28;19971;-73
2023/08/04 09:28:24;;;;;;;;;;;18.70;99.90;;;;;;5031485;28;20006;-73
2023/08/04 09:31:01;;;;;;;;;;;18.70;99.90;;;;;;5031515;28;19968;-72
2023/08/04 09:33:29;;;;;;;;;;;18.80;99.90;;;;;;5031796;28;19972;-72
2023/08/04 09:36:05;;;;;;;;;;;18.80;99.90;;;;;;5031652;28;19972;-73
2023/08/04 09:38:33;;;;;;;;;;;18.80;99.90;;;;;;5031232;28;19960;-72
2023/08/04 09:41:01;;;;;;;;;;;18.70;99.90;;;;;;5031599;28;20474;-73
2023/08/04 09:43:29;;;;;;;;;;;18.80;99.90;;;;;;5031702;28;20007;-72
2023/08/04 09:45:58;;;;;;;;;;;18.80;99.90;;;;;;5031485;28;19971;-72
2023/08/04 09:48:26;;;;;;;;;;;18.80;99.90;;;;;;5031213;28;19964;-70
2023/08/04 09:51:08;;;;;;;;;;;18.90;99.90;;;;;;5031070;28;20489;-73
2023/08/04 09:53:37;;;;;;;;;;;18.90;99.90;;;;;;5031434;28;19964;-72
2023/08/04 09:56:05;;;;;;;;;;;18.90;99.90;;;;;;5031407;28;19975;-73
2023/08/04 09:58:34;;;;;;;;;;;18.90;99.90;;;;;;5030983;28;19995;-72
2023/08/04 10:01:03;;;;;;;;;;;19.00;99.90;;;;;;5031268;28;19964;-73
2023/08/04 10:03:30;;;;;;;;;;;19.10;99.90;;;;;;5031499;28;19965;-72
2023/08/04 10:06:00;;;;;;;;;;;19.20;99.90;;;;;;5031239;28;20451;-73
2023/08/04 10:08:30;;;;;;;;;;;19.30;99.90;;;;;;5031117;28;20047;-72
2023/08/04 10:10:58;;;;;;;;;;;19.40;99.90;;;;;;5031062;28;19968;-73
2023/08/04 10:13:27;;;;;;;;;;;19.40;99.90;;;;;;5031245;28;19966;-73
2023/08/04 10:15:57;;;;;;;;;;;19.70;99.90;;;;;;5031146;28;20469;-72
2023/08/04 10:18:25;;;;;;;;;;;19.80;99.90;;;;;;5031010;28;20336;-71
2023/08/04 10:20:53;;;;;;;;;;;20.00;99.90;;;;;;5031186;28;19972;-72
2023/08/04 10:23:21;;;;;;;;;;;20.10;99.90;;;;;;5024787;28;19960;-73
2023/08/04 10:25:53;;;;;;;;;;;20.20;99.90;;;;;;5035015;28;19965;-73
2023/08/04 10:28:21;;;;;;;;;;;20.30;99.90;;;;;;5034818;28;20047;-75
2023/08/04 10:31:02;;;;;;;;;;;20.30;99.90;;;;;;5034909;28;19964;-73
2023/08/04 10:33:30;;;;;;;;;;;20.30;99.90;;;;;;5028251;28;20317;-73
2023/08/04 10:36:08;;;;;;;;;;;20.30;99.90;;;;;;5034994;28;19968;-73
2023/08/04 10:38:46;;;;;;;;;;;20.20;99.90;;;;;;5034939;28;20382;-73
2023/08/04 10:41:15;;;;;;;;;;;20.00;99.90;;;;;;5034814;28;19971;-73
2023/08/04 10:43:59;;;;;;;;;;;20.00;99.90;;;;;;5034853;28;20026;-73
2023/08/04 10:46:26;;;;;;;;;;;20.00;99.90;;;;;;5035070;28;19960;-73
2023/08/04 10:48:54;;;;;;;;;;;20.10;99.90;;;;;;5033985;28;20067;-73
2023/08/04 10:51:25;;;;;;;;;;;20.00;99.90;;;;;;5026263;28;20501;-73
2023/08/04 10:53:53;;;;;;;;;;;19.90;99.90;;;;;;5034739;28;19968;-73
2023/08/04 10:56:23;;;;;;;;;;;19.80;99.90;;;;;;5034309;28;20446;-74
2023/08/04 10:58:51;;;;;;;;;;;19.80;99.90;;;;;;5034590;28;20402;-74
2023/08/04 11:01:19;;;;;;;;;;;19.90;99.90;;;;;;5034408;28;19968;-73
2023/08/04 11:03:48;;;;;;;;;;;20.10;99.90;;;;;;5034508;28;20466;-73
2023/08/04 11:06:17;;;;;;;;;;;20.10;99.90;;;;;;5034419;28;20338;-72
2023/08/04 11:08:45;;;;;;;;;;;20.20;99.90;;;;;;5034168;28;19999;-74
2023/08/04 11:11:13;;;;;;;;;;;20.10;99.90;;;;;;5034157;28;19968;-74
2023/08/04 11:13:42;;;;;;;;;;;20.20;99.90;;;;;;5034059;28;20047;-74
2023/08/04 11:16:10;;;;;;;;;;;20.40;99.90;;;;;;5034231;28;19965;-73
2023/08/04 11:18:38;;;;;;;;;;;20.60;99.90;;;;;;5033993;28;20316;-73
2023/08/04 11:21:06;;;;;;;;;;;20.50;99.90;;;;;;5033719;28;19979;-73
2023/08/04 11:23:33;;;;;;;;;;;20.50;99.90;;;;;;5034496;28;19964;-74
2023/08/04 11:26:02;;;;;;;;;;;20.50;99.90;;;;;;5034295;28;19972;-73
2023/08/04 11:28:32;;;;;;;;;;;20.50;99.90;;;;;;5033970;28;20431;-74
2023/08/04 11:31:04;;;;;;;;;;;20.50;99.90;;;;;;5033770;28;20458;-74
2023/08/04 11:33:33;;;;;;;;;;;20.60;99.90;;;;;;5026611;28;19961;-73
2023/08/04 11:36:02;;;;;;;;;;;20.50;99.90;;;;;;5034045;28;20427;-73
2023/08/04 11:38:29;;;;;;;;;;;20.70;99.90;;;;;;5026180;28;19964;-74
2023/08/04 11:40:59;;;;;;;;;;;20.70;99.90;;;;;;5036376;28;19969;-74
2023/08/04 11:43:33;;;;;;;;;;;20.70;99.90;;;;;;5027932;28;19971;-73
2023/08/04 11:46:03;;;;;;;;;;;21.00;99.90;;;;;;5034764;28;19992;-73
2023/08/04 11:48:33;;;;;;;;;;;21.30;99.90;;;;;;5033773;28;19960;-74
2023/08/04 11:51:01;;;;;;;;;;;21.60;99.90;;;;;;5037362;28;19972;-74
2023/08/04 11:53:29;;;;;;;;;;;21.80;99.90;;;;;;5033419;28;20426;-73
2023/08/04 11:55:58;;;;;;;;;;;21.80;99.90;;;;;;5033457;28;19983;-75
2023/08/04 11:58:30;;;;;;;;;;;21.90;99.90;;;;;;5033252;28;20449;-74
2023/08/04 12:00:58;;;;;;;;;;;22.00;99.90;;;;;;5036992;28;19964;-73
2023/08/04 12:03:25;;;;;;;;;;;22.20;99.90;;;;;;5033361;28;20124;-74
2023/08/04 12:05:55;;;;;;;;;;;22.30;99.90;;;;;;5033232;28;19990;-74
2023/08/04 12:08:22;;;;;;;;;;;22.30;99.90;;;;;;5032959;28;19971;-73
2023/08/04 12:11:00;;;;;;;;;;;22.20;99.90;;;;;;5033120;28;19964;-74
2023/08/04 12:13:34;;;;;;;;;;;22.10;99.90;;;;;;5015488;28;19966;-75
2023/08/04 12:16:02;;;;;;;;;;;22.10;99.90;;;;;;5033201;28;20443;-75
2023/08/04 12:18:30;;;;;;;;;;;22.10;99.90;;;;;;5033832;28;19961;-74
2023/08/04 12:20:59;;;;;;;;;;;22.20;99.90;;;;;;5032922;28;19972;-74
2023/08/04 12:23:27;;;;;;;;;;;22.30;99.90;;;;;;5032935;28;19964;-74
2023/08/04 12:25:55;;;;;;;;;;;22.30;99.90;;;;;;5032953;28;19964;-74
2023/08/04 12:28:23;;;;;;;;;;;22.20;99.90;;;;;;5032520;28;19971;-73
2023/08/04 12:30:51;;;;;;;;;;;22.30;99.90;;;;;;5032684;28;20179;-74
2023/08/04 12:33:39;;;;;;;;;;;22.30;99.90;;;;;;5025946;28;20060;-74
2023/08/04 12:36:08;;;;;;;;;;;22.50;99.90;;;;;;5032796;28;19964;-74
2023/08/04 12:38:35;;;;;;;;;;;22.50;99.90;;;;;;5040788;28;19970;-75
2023/08/04 12:41:03;;;;;;;;;;;23.00;99.90;;;;;;5032355;28;19965;-74
2023/08/04 12:43:31;;;;;;;;;;;23.80;99.90;;;;;;5032540;28;19960;-74
2023/08/04 12:45:59;;;;;;;;;;;24.60;99.90;;;;;;5032091;28;19987;-74
2023/08/04 12:48:28;;;;;;;;;;;25.10;99.90;;;;;;5040422;28;20018;-74
2023/08/04 12:50:56;;;;;;;;;;;25.70;99.90;;;;;;5032132;28;19968;-74
2023/08/04 12:53:25;;;;;;;;;;;26.30;99.90;;;;;;5032271;28;19971;-74
2023/08/04 12:55:53;;;;;;;;;;;26.30;99.90;;;;;;5032265;28;19975;-74
2023/08/04 12:58:20;;;;;;;;;;;26.20;99.90;;;;;;5032166;28;20324;-74
2023/08/04 13:00:48;;;;;;;;;;;26.20;99.90;;;;;;5032094;28;19971;-74
2023/08/04 13:03:16;;;;;;;;;;;26.20;99.90;;;;;;5032015;28;19972;-74
2023/08/04 13:05:44;;;;;;;;;;;26.50;99.90;;;;;;5032371;28;19960;-74
2023/08/04 13:08:12;;;;;;;;;;;26.70;99.90;;;;;;5031645;28;20457;-74
2023/08/04 13:10:41;;;;;;;;;;;25.90;99.90;;;;;;5031791;28;19960;-74
2023/08/04 13:13:09;;;;;;;;;;;25.70;99.90;;;;;;5031929;28;20018;-74
2023/08/04 13:15:42;;;;;;;;;;;25.80;99.90;;;;;;5024077;28;19961;-74
2023/08/04 13:18:11;;;;;;;;;;;26.20;99.90;;;;;;5031820;28;19968;-74
2023/08/04 13:20:39;;;;;;;;;;;26.20;99.90;;;;;;5031877;28;19995;-75
2023/08/04 13:23:07;;;;;;;;;;;26.90;99.90;;;;;;5032196;28;20002;-74
2023/08/04 13:25:35;;;;;;;;;;;27.40;99.90;;;;;;5031578;28;19960;-73
2023/08/04 13:28:05;;;;;;;;;;;27.30;99.00;;;;;;5031643;28;20067;-73
2023/08/04 13:30:33;;;;;;;;;;;26.70;99.90;;;;;;5031659;28;19972;-74
2023/08/04 13:33:01;;;;;;;;;;;26.40;99.90;;;;;;5031784;28;20008;-74
2023/08/04 13:35:29;;;;;;;;;;;26.00;99.90;;;;;;5031355;28;19964;-75
2023/08/04 13:37:57;;;;;;;;;;;25.70;99.90;;;;;;5031621;28;19971;-74
2023/08/04 13:40:25;;;;;;;;;;;25.20;99.90;;;;;;5031433;28;19964;-75
2023/08/04 13:42:52;;;;;;;;;;;24.90;99.90;;;;;;5031816;28;19964;-75
2023/08/04 13:45:21;;;;;;;;;;;24.60;99.90;;;;;;5031284;28;20019;-74
2023/08/04 13:47:49;;;;;;;;;;;24.30;99.90;;;;;;5013663;28;19965;-73
2023/08/04 13:50:17;;;;;;;;;;;24.30;99.90;;;;;;5031092;28;19964;-75
2023/08/04 13:52:45;;;;;;;;;;;24.10;99.90;;;;;;5031654;28;20601;-75
2023/08/04 13:55:13;;;;;;;;;;;23.80;99.90;;;;;;5023332;28;19968;-73
2023/08/04 13:57:41;;;;;;;;;;;23.60;99.90;;;;;;5022488;28;19968;-75
2023/08/04 14:00:10;;;;;;;;;;;23.50;99.90;;;;;;5031585;28;19965;-74
2023/08/04 14:02:40;;;;;;;;;;;23.40;99.90;;;;;;5031261;28;19972;-75
2023/08/04 14:05:08;;;;;;;;;;;22.80;99.90;;;;;;5031345;28;20011;-75
2023/08/04 14:07:37;;;;;;;;;;;22.70;99.90;;;;;;5031031;28;19975;-75
2023/08/04 14:10:08;;;;;;;;;;;22.70;99.90;;;;;;5031293;28;19965;-75
2023/08/04 14:12:36;;;;;;;;;;;22.80;99.90;;;;;;5034034;28;19972;-75
2023/08/04 14:15:04;;;;;;;;;;;22.60;99.90;;;;;;5036418;28;20015;-75
2023/08/04 14:17:32;;;;;;;;;;;23.00;99.90;;;;;;5033168;28;19964;-75
2023/08/04 14:20:03;;;;;;;;;;;23.40;99.90;;;;;;5037235;28;20034;-75
2023/08/04 14:22:31;;;;;;;;;;;23.60;99.90;;;;;;5039634;28;20366;-74
2023/08/04 14:24:59;;;;;;;;;;;23.60;99.90;;;;;;5031260;28;20010;-75